sensor_id;sensor_type;location;lat;lon;timestamp;pressure;altitude;pressure_sealevel;temperature;humidity
47913;BME280;33676;51.006;17.180;2023-04-04T00:01:13;101330.98;;;-0.59;70.87
47913;BME280;33676;51.006;17.180;2023-04-04T00:03:41;101323.81;;;-0.61;71.03
47913;BME280;33676;51.006;17.180;2023-04-04T00:06:10;101321.25;;;-0.63;70.92
47913;BME280;33676;51.006;17.180;2023-04-04T00:08:39;101320.09;;;-0.65;70.99
47913;BME280;33676;51.006;17.180;2023-04-04T00:11:07;101316.52;;;-0.68;71.23
47913;BME280;33676;51.006;17.180;2023-04-04T00:13:36;101314.64;;;-0.69;71.19
47913;BME280;33676;51.006;17.180;2023-04-04T00:16:06;101311.92;;;-0.71;71.31
47913;BME280;33676;51.006;17.180;2023-04-04T00:18:34;101305.77;;;-0.73;71.43
47913;BME280;33676;51.006;17.180;2023-04-04T00:21:03;101305.45;;;-0.74;71.50
47913;BME280;33676;51.006;17.180;2023-04-04T00:23:31;101301.51;;;-0.74;71.54
47913;BME280;33676;51.006;17.180;2023-04-04T00:26:00;101301.18;;;-0.76;71.69
47913;BME280;33676;51.006;17.180;2023-04-04T00:28:28;101298.43;;;-0.76;71.63
47913;BME280;33676;51.006;17.180;2023-04-04T00:30:57;101294.48;;;-0.76;71.82
47913;BME280;33676;51.006;17.180;2023-04-04T00:33:25;101294.15;;;-0.77;71.94
47913;BME280;33676;51.006;17.180;2023-04-04T00:35:54;101290.89;;;-0.77;71.99
47913;BME280;33676;51.006;17.180;2023-04-04T00:38:22;101289.67;;;-0.75;72.04
47913;BME280;33676;51.006;17.180;2023-04-04T00:40:51;101283.48;;;-0.74;72.11
47913;BME280;33676;51.006;17.180;2023-04-04T00:43:19;101281.38;;;-0.72;72.25
47913;BME280;33676;51.006;17.180;2023-04-04T00:45:50;101279.96;;;-0.69;72.41
47913;BME280;33676;51.006;17.180;2023-04-04T00:48:19;101276.13;;;-0.65;72.55
47913;BME280;33676;51.006;17.180;2023-04-04T00:50:48;101277.62;;;-0.61;72.52
47913;BME280;33676;51.006;17.180;2023-04-04T00:53:17;101276.00;;;-0.57;72.61
47913;BME280;33676;51.006;17.180;2023-04-04T00:55:45;101272.27;;;-0.51;72.65
47913;BME280;33676;51.006;17.180;2023-04-04T00:58:14;101273.39;;;-0.46;72.79
47913;BME280;33676;51.006;17.180;2023-04-04T01:00:43;101275.19;;;-0.40;72.81
47913;BME280;33676;51.006;17.180;2023-04-04T01:03:12;101273.73;;;-0.36;72.96
47913;BME280;33676;51.006;17.180;2023-04-04T01:05:41;101270.91;;;-0.31;72.88
47913;BME280;33676;51.006;17.180;2023-04-04T01:08:10;101271.34;;;-0.26;73.07
47913;BME280;33676;51.006;17.180;2023-04-04T01:10:39;101272.98;;;-0.21;73.08
47913;BME280;33676;51.006;17.180;2023-04-04T01:13:09;101271.16;;;-0.16;73.02
47913;BME280;33676;51.006;17.180;2023-04-04T01:15:38;101269.02;;;-0.12;72.94
47913;BME280;33676;51.006;17.180;2023-04-04T01:18:08;101268.60;;;-0.07;72.90
47913;BME280;33676;51.006;17.180;2023-04-04T01:23:59;101263.09;;;0.01;72.65
47913;BME280;33676;51.006;17.180;2023-04-04T01:26:29;101254.59;;;0.06;72.67
47913;BME280;33676;51.006;17.180;2023-04-04T01:28:58;101252.80;;;0.09;72.63
47913;BME280;33676;51.006;17.180;2023-04-04T01:31:39;101252.05;;;0.12;72.39
47913;BME280;33676;51.006;17.180;2023-04-04T01:34:18;101255.27;;;0.16;72.37
47913;BME280;33676;51.006;17.180;2023-04-04T01:39:41;101250.67;;;0.22;72.21
47913;BME280;33676;51.006;17.180;2023-04-04T01:42:10;101246.52;;;0.22;72.14
47913;BME280;33676;51.006;17.180;2023-04-04T01:44:39;101244.84;;;0.21;71.85
47913;BME280;33676;51.006;17.180;2023-04-04T01:47:12;101246.07;;;0.20;71.86
47913;BME280;33676;51.006;17.180;2023-04-04T01:49:40;101244.88;;;0.19;71.51
47913;BME280;33676;51.006;17.180;2023-04-04T01:52:09;101241.80;;;0.18;71.62
47913;BME280;33676;51.006;17.180;2023-04-04T01:54:37;101242.65;;;0.18;71.63
47913;BME280;33676;51.006;17.180;2023-04-04T01:57:06;101246.75;;;0.20;71.34
47913;BME280;33676;51.006;17.180;2023-04-04T01:59:34;101246.90;;;0.21;71.40
47913;BME280;33676;51.006;17.180;2023-04-04T02:02:03;101246.73;;;0.21;71.36
47913;BME280;33676;51.006;17.180;2023-04-04T02:04:31;101242.73;;;0.23;71.43
47913;BME280;33676;51.006;17.180;2023-04-04T02:07:00;101242.18;;;0.25;71.49
47913;BME280;33676;51.006;17.180;2023-04-04T02:09:28;101244.73;;;0.26;71.50
47913;BME280;33676;51.006;17.180;2023-04-04T02:11:57;101240.23;;;0.27;71.37
47913;BME280;33676;51.006;17.180;2023-04-04T02:14:25;101237.13;;;0.28;71.49
47913;BME280;33676;51.006;17.180;2023-04-04T02:16:53;101232.10;;;0.30;71.65
47913;BME280;33676;51.006;17.180;2023-04-04T02:19:22;101226.39;;;0.32;71.73
47913;BME280;33676;51.006;17.180;2023-04-04T02:21:51;101227.55;;;0.34;71.56
47913;BME280;33676;51.006;17.180;2023-04-04T02:24:20;101229.73;;;0.37;71.65
47913;BME280;33676;51.006;17.180;2023-04-04T02:26:48;101228.65;;;0.39;71.47
47913;BME280;33676;51.006;17.180;2023-04-04T02:29:16;101229.92;;;0.44;71.32
47913;BME280;33676;51.006;17.180;2023-04-04T02:31:45;101225.23;;;0.47;71.29
47913;BME280;33676;51.006;17.180;2023-04-04T02:34:13;101231.54;;;0.49;71.06
47913;BME280;33676;51.006;17.180;2023-04-04T02:36:42;101233.23;;;0.51;71.01
47913;BME280;33676;51.006;17.180;2023-04-04T02:39:10;101233.02;;;0.52;71.14
47913;BME280;33676;51.006;17.180;2023-04-04T02:41:38;101234.16;;;0.54;71.16
47913;BME280;33676;51.006;17.180;2023-04-04T02:44:07;101232.76;;;0.55;70.96
47913;BME280;33676;51.006;17.180;2023-04-04T02:46:36;101233.79;;;0.55;70.84
47913;BME280;33676;51.006;17.180;2023-04-04T02:49:05;101231.55;;;0.55;71.01
47913;BME280;33676;51.006;17.180;2023-04-04T02:51:33;101224.98;;;0.57;70.81
47913;BME280;33676;51.006;17.180;2023-04-04T02:54:02;101224.24;;;0.59;70.93
47913;BME280;33676;51.006;17.180;2023-04-04T02:56:31;101229.87;;;0.62;70.60
47913;BME280;33676;51.006;17.180;2023-04-04T02:58:59;101234.51;;;0.62;70.37
47913;BME280;33676;51.006;17.180;2023-04-04T03:01:28;101232.77;;;0.62;70.21
47913;BME280;33676;51.006;17.180;2023-04-04T03:03:56;101237.05;;;0.64;70.34
47913;BME280;33676;51.006;17.180;2023-04-04T03:06:25;101238.73;;;0.65;70.30
47913;BME280;33676;51.006;17.180;2023-04-04T03:08:53;101234.55;;;0.68;70.43
47913;BME280;33676;51.006;17.180;2023-04-04T03:11:22;101234.50;;;0.70;70.17
47913;BME280;33676;51.006;17.180;2023-04-04T03:13:50;101240.64;;;0.73;70.49
47913;BME280;33676;51.006;17.180;2023-04-04T03:16:19;101242.69;;;0.74;70.48
47913;BME280;33676;51.006;17.180;2023-04-04T03:18:48;101243.70;;;0.75;70.29
47913;BME280;33676;51.006;17.180;2023-04-04T03:21:16;101238.70;;;0.75;70.41
47913;BME280;33676;51.006;17.180;2023-04-04T03:23:45;101237.99;;;0.76;70.26
47913;BME280;33676;51.006;17.180;2023-04-04T03:26:14;101236.10;;;0.76;70.34
47913;BME280;33676;51.006;17.180;2023-04-04T03:28:42;101236.27;;;0.76;70.32
47913;BME280;33676;51.006;17.180;2023-04-04T03:31:11;101236.95;;;0.77;70.33
47913;BME280;33676;51.006;17.180;2023-04-04T03:33:39;101240.39;;;0.76;70.39
47913;BME280;33676;51.006;17.180;2023-04-04T03:36:11;101240.08;;;0.75;70.47
47913;BME280;33676;51.006;17.180;2023-04-04T03:38:40;101241.66;;;0.74;70.54
47913;BME280;33676;51.006;17.180;2023-04-04T03:41:09;101243.25;;;0.71;70.61
47913;BME280;33676;51.006;17.180;2023-04-04T03:43:37;101242.08;;;0.71;70.53
47913;BME280;33676;51.006;17.180;2023-04-04T03:46:06;101243.65;;;0.69;70.36
47913;BME280;33676;51.006;17.180;2023-04-04T03:48:35;101240.91;;;0.69;70.66
47913;BME280;33676;51.006;17.180;2023-04-04T03:51:04;101237.48;;;0.68;70.70
47913;BME280;33676;51.006;17.180;2023-04-04T03:53:33;101244.55;;;0.67;70.72
47913;BME280;33676;51.006;17.180;2023-04-04T03:56:03;101242.37;;;0.64;70.77
47913;BME280;33676;51.006;17.180;2023-04-04T03:58:34;101245.84;;;0.63;71.04
47913;BME280;33676;51.006;17.180;2023-04-04T04:01:03;101244.84;;;0.61;71.17
47913;BME280;33676;51.006;17.180;2023-04-04T04:03:31;101242.98;;;0.60;71.20
47913;BME280;33676;51.006;17.180;2023-04-04T04:06:00;101247.81;;;0.59;71.23
47913;BME280;33676;51.006;17.180;2023-04-04T04:08:29;101244.38;;;0.59;71.40
47913;BME280;33676;51.006;17.180;2023-04-04T04:11:05;101238.71;;;0.59;71.58
47913;BME280;33676;51.006;17.180;2023-04-04T04:13:35;101235.31;;;0.56;71.44
47913;BME280;33676;51.006;17.180;2023-04-04T04:16:05;101237.23;;;0.55;71.69
47913;BME280;33676;51.006;17.180;2023-04-04T04:18:33;101238.36;;;0.52;71.79
47913;BME280;33676;51.006;17.180;2023-04-04T04:21:02;101240.50;;;0.49;71.73
47913;BME280;33676;51.006;17.180;2023-04-04T04:23:32;101236.59;;;0.46;71.84
47913;BME280;33676;51.006;17.180;2023-04-04T04:26:00;101238.52;;;0.45;72.04
47913;BME280;33676;51.006;17.180;2023-04-04T04:28:28;101238.17;;;0.44;72.24
47913;BME280;33676;51.006;17.180;2023-04-04T04:31:08;101235.98;;;0.42;72.23
47913;BME280;33676;51.006;17.180;2023-04-04T04:33:37;101237.71;;;0.42;72.36
47913;BME280;33676;51.006;17.180;2023-04-04T04:36:06;101240.98;;;0.41;72.47
47913;BME280;33676;51.006;17.180;2023-04-04T04:38:35;101240.83;;;0.41;72.55
47913;BME280;33676;51.006;17.180;2023-04-04T04:41:03;101239.45;;;0.41;72.61
47913;BME280;33676;51.006;17.180;2023-04-04T04:43:32;101240.31;;;0.41;72.85
47913;BME280;33676;51.006;17.180;2023-04-04T04:46:00;101238.24;;;0.41;72.79
47913;BME280;33676;51.006;17.180;2023-04-04T04:48:28;101239.23;;;0.43;72.92
47913;BME280;33676;51.006;17.180;2023-04-04T04:50:57;101238.33;;;0.46;73.05
47913;BME280;33676;51.006;17.180;2023-04-04T04:53:25;101239.63;;;0.49;73.23
47913;BME280;33676;51.006;17.180;2023-04-04T04:55:54;101243.28;;;0.54;73.46
47913;BME280;33676;51.006;17.180;2023-04-04T04:58:22;101241.15;;;0.56;73.30
47913;BME280;33676;51.006;17.180;2023-04-04T05:00:54;101242.16;;;0.57;73.30
47913;BME280;33676;51.006;17.180;2023-04-04T05:03:26;101240.23;;;0.60;73.41
47913;BME280;33676;51.006;17.180;2023-04-04T05:05:55;101244.13;;;0.62;73.38
47913;BME280;33676;51.006;17.180;2023-04-04T05:08:23;101246.52;;;0.63;73.21
47913;BME280;33676;51.006;17.180;2023-04-04T05:10:51;101248.70;;;0.66;73.42
47913;BME280;33676;51.006;17.180;2023-04-04T05:13:22;101250.91;;;0.67;73.47
47913;BME280;33676;51.006;17.180;2023-04-04T05:15:50;101252.92;;;0.70;73.56
47913;BME280;33676;51.006;17.180;2023-04-04T05:18:20;101254.42;;;0.72;73.50
47913;BME280;33676;51.006;17.180;2023-04-04T05:20:57;101252.84;;;0.74;73.22
47913;BME280;33676;51.006;17.180;2023-04-04T05:23:26;101252.75;;;0.78;73.20
47913;BME280;33676;51.006;17.180;2023-04-04T05:25:54;101252.50;;;0.81;73.30
47913;BME280;33676;51.006;17.180;2023-04-04T05:28:23;101250.89;;;0.84;73.35
47913;BME280;33676;51.006;17.180;2023-04-04T05:30:52;101248.27;;;0.86;72.98
47913;BME280;33676;51.006;17.180;2023-04-04T05:33:20;101243.90;;;0.89;72.95
47913;BME280;33676;51.006;17.180;2023-04-04T05:35:50;101248.31;;;0.92;73.09
47913;BME280;33676;51.006;17.180;2023-04-04T05:38:19;101252.42;;;0.93;72.95
47913;BME280;33676;51.006;17.180;2023-04-04T05:40:47;101252.33;;;0.97;72.90
47913;BME280;33676;51.006;17.180;2023-04-04T05:43:15;101250.02;;;1.00;73.01
47913;BME280;33676;51.006;17.180;2023-04-04T05:45:44;101249.39;;;1.04;72.86
47913;BME280;33676;51.006;17.180;2023-04-04T05:48:13;101247.05;;;1.08;72.83
47913;BME280;33676;51.006;17.180;2023-04-04T05:50:44;101242.88;;;1.10;72.60
47913;BME280;33676;51.006;17.180;2023-04-04T05:53:14;101244.31;;;1.14;72.50
47913;BME280;33676;51.006;17.180;2023-04-04T05:55:44;101247.80;;;1.20;72.59
47913;BME280;33676;51.006;17.180;2023-04-04T05:58:12;101247.91;;;1.23;72.17
47913;BME280;33676;51.006;17.180;2023-04-04T06:00:41;101249.70;;;1.27;72.10
47913;BME280;33676;51.006;17.180;2023-04-04T06:03:10;101245.95;;;1.33;72.24
47913;BME280;33676;51.006;17.180;2023-04-04T06:05:41;101246.52;;;1.38;72.00
47913;BME280;33676;51.006;17.180;2023-04-04T06:08:09;101250.39;;;1.42;71.73
47913;BME280;33676;51.006;17.180;2023-04-04T06:10:38;101245.67;;;1.44;71.53
47913;BME280;33676;51.006;17.180;2023-04-04T06:13:07;101247.31;;;1.48;71.35
47913;BME280;33676;51.006;17.180;2023-04-04T06:15:36;101250.61;;;1.53;71.29
47913;BME280;33676;51.006;17.180;2023-04-04T06:18:05;101248.35;;;1.60;71.29
47913;BME280;33676;51.006;17.180;2023-04-04T06:20:33;101247.48;;;1.67;71.11
47913;BME280;33676;51.006;17.180;2023-04-04T06:23:05;101241.48;;;1.73;71.13
47913;BME280;33676;51.006;17.180;2023-04-04T06:25:33;101241.79;;;1.81;70.85
47913;BME280;33676;51.006;17.180;2023-04-04T06:28:03;101245.95;;;1.86;70.57
47913;BME280;33676;51.006;17.180;2023-04-04T06:30:36;101245.16;;;1.90;70.59
47913;BME280;33676;51.006;17.180;2023-04-04T06:33:05;101249.64;;;1.97;70.43
47913;BME280;33676;51.006;17.180;2023-04-04T06:35:34;101244.04;;;2.06;70.46
47913;BME280;33676;51.006;17.180;2023-04-04T06:38:02;101241.80;;;2.18;70.77
47913;BME280;33676;51.006;17.180;2023-04-04T06:40:32;101237.87;;;2.28;70.49
47913;BME280;33676;51.006;17.180;2023-04-04T06:43:01;101236.72;;;2.39;70.26
47913;BME280;33676;51.006;17.180;2023-04-04T06:45:29;101238.06;;;2.46;69.80
47913;BME280;33676;51.006;17.180;2023-04-04T06:48:01;101240.41;;;2.49;69.07
47913;BME280;33676;51.006;17.180;2023-04-04T06:50:30;101239.67;;;2.56;69.48
47913;BME280;33676;51.006;17.180;2023-04-04T06:53:02;101241.49;;;2.63;69.03
47913;BME280;33676;51.006;17.180;2023-04-04T06:55:33;101239.76;;;2.70;68.95
47913;BME280;33676;51.006;17.180;2023-04-04T06:58:01;101233.36;;;2.76;68.68
47913;BME280;33676;51.006;17.180;2023-04-04T07:00:30;101239.29;;;2.80;68.42
47913;BME280;33676;51.006;17.180;2023-04-04T07:02:59;101241.90;;;2.84;68.25
47913;BME280;33676;51.006;17.180;2023-04-04T07:05:28;101238.34;;;2.88;68.16
47913;BME280;33676;51.006;17.180;2023-04-04T07:07:56;101237.95;;;2.95;68.24
47913;BME280;33676;51.006;17.180;2023-04-04T07:10:25;101236.06;;;3.06;68.31
47913;BME280;33676;51.006;17.180;2023-04-04T07:12:54;101233.80;;;3.11;67.94
47913;BME280;33676;51.006;17.180;2023-04-04T07:15:22;101233.70;;;3.19;67.90
47913;BME280;33676;51.006;17.180;2023-04-04T07:17:51;101236.23;;;3.26;67.54
47913;BME280;33676;51.006;17.180;2023-04-04T07:20:19;101239.52;;;3.37;67.64
47913;BME280;33676;51.006;17.180;2023-04-04T07:22:48;101238.45;;;3.49;67.84
47913;BME280;33676;51.006;17.180;2023-04-04T07:25:16;101235.69;;;3.59;67.68
47913;BME280;33676;51.006;17.180;2023-04-04T07:27:45;101237.59;;;3.68;67.51
47913;BME280;33676;51.006;17.180;2023-04-04T07:30:14;101242.77;;;3.74;66.86
47913;BME280;33676;51.006;17.180;2023-04-04T07:32:42;101243.23;;;3.71;66.23
47913;BME280;33676;51.006;17.180;2023-04-04T07:35:11;101239.18;;;3.63;66.03
47913;BME280;33676;51.006;17.180;2023-04-04T07:37:39;101238.49;;;3.63;66.24
47913;BME280;33676;51.006;17.180;2023-04-04T07:40:09;101241.80;;;3.67;66.25
47913;BME280;33676;51.006;17.180;2023-04-04T07:42:43;101238.66;;;3.78;66.58
47913;BME280;33676;51.006;17.180;2023-04-04T07:45:13;101240.45;;;3.91;66.53
47913;BME280;33676;51.006;17.180;2023-04-04T07:47:43;101241.91;;;4.03;66.58
47913;BME280;33676;51.006;17.180;2023-04-04T07:50:13;101243.71;;;4.11;65.71
47913;BME280;33676;51.006;17.180;2023-04-04T07:52:48;101243.52;;;4.12;64.79
47913;BME280;33676;51.006;17.180;2023-04-04T07:55:19;101243.04;;;4.11;64.40
47913;BME280;33676;51.006;17.180;2023-04-04T07:57:49;101243.52;;;4.12;64.33
47913;BME280;33676;51.006;17.180;2023-04-04T08:00:18;101241.52;;;4.15;64.25
47913;BME280;33676;51.006;17.180;2023-04-04T08:02:53;101235.85;;;4.17;64.23
47913;BME280;33676;51.006;17.180;2023-04-04T08:05:22;101237.89;;;4.23;64.43
47913;BME280;33676;51.006;17.180;2023-04-04T08:07:51;101236.34;;;4.28;64.17
47913;BME280;33676;51.006;17.180;2023-04-04T08:10:19;101232.52;;;4.28;64.01
47913;BME280;33676;51.006;17.180;2023-04-04T08:12:49;101229.37;;;4.34;63.98
47913;BME280;33676;51.006;17.180;2023-04-04T08:15:17;101229.97;;;4.36;63.81
47913;BME280;33676;51.006;17.180;2023-04-04T08:17:45;101235.52;;;4.36;64.04
47913;BME280;33676;51.006;17.180;2023-04-04T08:20:15;101235.03;;;4.35;63.97
47913;BME280;33676;51.006;17.180;2023-04-04T08:22:43;101233.02;;;4.33;63.48
47913;BME280;33676;51.006;17.180;2023-04-04T08:25:11;101230.98;;;4.32;63.67
47913;BME280;33676;51.006;17.180;2023-04-04T08:27:40;101232.83;;;4.39;63.77
47913;BME280;33676;51.006;17.180;2023-04-04T08:30:12;101234.83;;;4.45;63.70
47913;BME280;33676;51.006;17.180;2023-04-04T08:32:42;101235.70;;;4.45;63.33
47913;BME280;33676;51.006;17.180;2023-04-04T08:35:13;101234.45;;;4.37;62.99
47913;BME280;33676;51.006;17.180;2023-04-04T08:37:45;101239.58;;;4.29;62.87
47913;BME280;33676;51.006;17.180;2023-04-04T08:40:14;101236.52;;;4.23;62.88
47913;BME280;33676;51.006;17.180;2023-04-04T08:42:43;101234.11;;;4.22;62.78
47913;BME280;33676;51.006;17.180;2023-04-04T08:45:17;101230.09;;;4.23;62.73
47913;BME280;33676;51.006;17.180;2023-04-04T08:47:50;101225.21;;;4.29;62.81
47913;BME280;33676;51.006;17.180;2023-04-04T08:50:19;101233.59;;;4.37;62.76
47913;BME280;33676;51.006;17.180;2023-04-04T08:52:48;101230.85;;;4.40;62.56
47913;BME280;33676;51.006;17.180;2023-04-04T08:55:17;101229.20;;;4.43;62.34
47913;BME280;33676;51.006;17.180;2023-04-04T08:57:45;101228.83;;;4.44;62.25
47913;BME280;33676;51.006;17.180;2023-04-04T09:00:14;101226.61;;;4.52;62.62
47913;BME280;33676;51.006;17.180;2023-04-04T09:03:08;101223.52;;;4.61;62.38
47913;BME280;33676;51.006;17.180;2023-04-04T09:05:37;101220.23;;;4.65;61.83
47913;BME280;33676;51.006;17.180;2023-04-04T09:08:06;101212.38;;;4.67;61.68
47913;BME280;33676;51.006;17.180;2023-04-04T09:10:35;101206.44;;;4.72;62.07
47913;BME280;33676;51.006;17.180;2023-04-04T09:13:05;101205.88;;;4.77;61.77
47913;BME280;33676;51.006;17.180;2023-04-04T09:15:51;101207.39;;;4.79;61.23
47913;BME280;33676;51.006;17.180;2023-04-04T09:18:21;101202.54;;;4.83;61.24
47913;BME280;33676;51.006;17.180;2023-04-04T09:20:52;101206.04;;;4.91;61.40
47913;BME280;33676;51.006;17.180;2023-04-04T09:23:20;101208.00;;;4.94;60.89
47913;BME280;33676;51.006;17.180;2023-04-04T09:25:53;101207.89;;;4.97;60.62
47913;BME280;33676;51.006;17.180;2023-04-04T09:28:27;101212.50;;;4.98;60.60
47913;BME280;33676;51.006;17.180;2023-04-04T09:30:55;101220.38;;;5.01;60.30
47913;BME280;33676;51.006;17.180;2023-04-04T09:33:24;101217.23;;;5.02;60.44
47913;BME280;33676;51.006;17.180;2023-04-04T09:35:58;101221.47;;;5.08;60.20
47913;BME280;33676;51.006;17.180;2023-04-04T09:38:28;101220.38;;;5.09;59.76
47913;BME280;33676;51.006;17.180;2023-04-04T09:40:58;101217.96;;;5.13;59.94
47913;BME280;33676;51.006;17.180;2023-04-04T09:43:28;101214.83;;;5.26;60.33
47913;BME280;33676;51.006;17.180;2023-04-04T09:45:59;101223.29;;;5.44;60.55
47913;BME280;33676;51.006;17.180;2023-04-04T09:48:32;101220.37;;;5.56;60.24
47913;BME280;33676;51.006;17.180;2023-04-04T09:51:06;101216.31;;;5.61;59.68
47913;BME280;33676;51.006;17.180;2023-04-04T09:53:35;101212.92;;;5.68;59.75
47913;BME280;33676;51.006;17.180;2023-04-04T09:56:05;101215.21;;;5.71;59.79
47913;BME280;33676;51.006;17.180;2023-04-04T09:58:35;101211.97;;;5.77;59.57
47913;BME280;33676;51.006;17.180;2023-04-04T10:01:08;101210.92;;;5.85;59.44
47913;BME280;33676;51.006;17.180;2023-04-04T10:03:40;101210.25;;;5.98;59.41
47913;BME280;33676;51.006;17.180;2023-04-04T10:06:08;101201.77;;;6.13;59.76
47913;BME280;33676;51.006;17.180;2023-04-04T10:08:40;101201.64;;;6.19;59.52
47913;BME280;33676;51.006;17.180;2023-04-04T10:11:10;101200.56;;;6.24;59.42
47913;BME280;33676;51.006;17.180;2023-04-04T10:13:39;101197.68;;;6.33;59.40
47913;BME280;33676;51.006;17.180;2023-04-04T10:16:11;101203.52;;;6.39;58.78
47913;BME280;33676;51.006;17.180;2023-04-04T10:18:40;101193.17;;;6.33;58.43
47913;BME280;33676;51.006;17.180;2023-04-04T10:21:08;101193.74;;;6.25;58.48
47913;BME280;33676;51.006;17.180;2023-04-04T10:23:41;101195.27;;;6.14;57.74
47913;BME280;33676;51.006;17.180;2023-04-04T10:26:09;101196.37;;;6.05;57.89
47913;BME280;33676;51.006;17.180;2023-04-04T10:28:41;101201.05;;;6.02;58.04
47913;BME280;33676;51.006;17.180;2023-04-04T10:31:21;101204.15;;;5.98;57.54
47913;BME280;33676;51.006;17.180;2023-04-04T10:34:22;101200.18;;;5.89;56.94
47913;BME280;33676;51.006;17.180;2023-04-04T10:37:04;101196.95;;;5.92;57.84
47913;BME280;33676;51.006;17.180;2023-04-04T10:42:40;101183.54;;;6.72;58.75
47913;BME280;33676;51.006;17.180;2023-04-04T10:45:15;101189.42;;;7.01;58.91
47913;BME280;33676;51.006;17.180;2023-04-04T10:47:49;101185.94;;;7.22;58.61
47913;BME280;33676;51.006;17.180;2023-04-04T10:50:19;101187.88;;;7.39;58.61
47913;BME280;33676;51.006;17.180;2023-04-04T10:52:48;101184.17;;;7.44;58.01
47913;BME280;33676;51.006;17.180;2023-04-04T10:55:17;101175.79;;;7.48;57.86
47913;BME280;33676;51.006;17.180;2023-04-04T10:57:48;101173.03;;;7.47;56.88
47913;BME280;33676;51.006;17.180;2023-04-04T11:00:21;101171.88;;;7.39;56.70
47913;BME280;33676;51.006;17.180;2023-04-04T11:02:55;101171.50;;;7.33;56.97
47913;BME280;33676;51.006;17.180;2023-04-04T11:05:37;101169.94;;;7.26;56.67
47913;BME280;33676;51.006;17.180;2023-04-04T11:08:25;101170.12;;;7.09;56.05
47913;BME280;33676;51.006;17.180;2023-04-04T11:10:55;101172.05;;;6.94;56.35
47913;BME280;33676;51.006;17.180;2023-04-04T11:13:26;101168.00;;;6.77;56.08
47913;BME280;33676;51.006;17.180;2023-04-04T11:16:06;101166.98;;;6.55;55.73
47913;BME280;33676;51.006;17.180;2023-04-04T11:18:44;101161.67;;;6.31;55.76
47913;BME280;33676;51.006;17.180;2023-04-04T11:21:18;101168.08;;;6.21;56.18
47913;BME280;33676;51.006;17.180;2023-04-04T11:28:59;101158.55;;;6.12;57.01
47913;BME280;33676;51.006;17.180;2023-04-04T11:31:34;101155.91;;;6.14;57.20
47913;BME280;33676;51.006;17.180;2023-04-04T11:34:12;101164.70;;;6.04;56.61
47913;BME280;33676;51.006;17.180;2023-04-04T11:42:11;101158.94;;;5.57;56.06
47913;BME280;33676;51.006;17.180;2023-04-04T11:45:00;101163.63;;;5.40;55.82
47913;BME280;33676;51.006;17.180;2023-04-04T11:47:30;101167.80;;;5.27;56.54
47913;BME280;33676;51.006;17.180;2023-04-04T11:50:00;101161.82;;;5.25;56.93
47913;BME280;33676;51.006;17.180;2023-04-04T11:52:33;101162.33;;;5.29;57.30
47913;BME280;33676;51.006;17.180;2023-04-04T11:55:13;101160.94;;;5.34;57.36
47913;BME280;33676;51.006;17.180;2023-04-04T11:57:42;101160.20;;;5.35;57.32
47913;BME280;33676;51.006;17.180;2023-04-04T12:00:27;101162.41;;;5.36;57.39
47913;BME280;33676;51.006;17.180;2023-04-04T12:02:57;101159.38;;;5.34;56.88
47913;BME280;33676;51.006;17.180;2023-04-04T12:05:28;101155.02;;;5.26;57.04
47913;BME280;33676;51.006;17.180;2023-04-04T12:07:59;101153.01;;;5.24;57.35
47913;BME280;33676;51.006;17.180;2023-04-04T12:10:38;101151.77;;;5.21;57.37
47913;BME280;33676;51.006;17.180;2023-04-04T12:13:08;101150.98;;;5.16;57.62
47913;BME280;33676;51.006;17.180;2023-04-04T12:15:37;101155.30;;;5.12;57.54
47913;BME280;33676;51.006;17.180;2023-04-04T12:18:07;101150.04;;;5.09;57.79
47913;BME280;33676;51.006;17.180;2023-04-04T12:20:39;101151.73;;;5.10;57.89
47913;BME280;33676;51.006;17.180;2023-04-04T12:23:15;101148.06;;;5.10;57.65
47913;BME280;33676;51.006;17.180;2023-04-04T12:25:44;101142.11;;;5.08;57.69
47913;BME280;33676;51.006;17.180;2023-04-04T12:28:16;101139.77;;;5.10;57.78
47913;BME280;33676;51.006;17.180;2023-04-04T12:30:45;101135.58;;;5.15;58.04
47913;BME280;33676;51.006;17.180;2023-04-04T12:33:14;101134.74;;;5.18;58.06
47913;BME280;33676;51.006;17.180;2023-04-04T12:35:51;101139.41;;;5.19;57.88
47913;BME280;33676;51.006;17.180;2023-04-04T12:38:20;101137.24;;;5.12;57.80
47913;BME280;33676;51.006;17.180;2023-04-04T12:40:50;101137.41;;;5.08;57.89
47913;BME280;33676;51.006;17.180;2023-04-04T12:43:18;101140.40;;;5.11;58.19
47913;BME280;33676;51.006;17.180;2023-04-04T12:45:54;101138.21;;;5.22;58.47
47913;BME280;33676;51.006;17.180;2023-04-04T12:48:27;101136.77;;;5.36;58.15
47913;BME280;33676;51.006;17.180;2023-04-04T12:50:59;101139.05;;;5.59;58.21
47913;BME280;33676;51.006;17.180;2023-04-04T12:53:28;101132.95;;;5.79;58.19
47913;BME280;33676;51.006;17.180;2023-04-04T12:56:02;101136.85;;;5.85;57.89
47913;BME280;33676;51.006;17.180;2023-04-04T12:58:32;101133.36;;;5.81;57.70
47913;BME280;33676;51.006;17.180;2023-04-04T13:01:04;101137.79;;;5.76;57.62
47913;BME280;33676;51.006;17.180;2023-04-04T13:03:34;101136.89;;;5.65;57.48
47913;BME280;33676;51.006;17.180;2023-04-04T13:06:31;101131.34;;;5.57;57.87
47913;BME280;33676;51.006;17.180;2023-04-04T13:09:00;101131.92;;;5.51;57.88
47913;BME280;33676;51.006;17.180;2023-04-04T13:11:55;101131.88;;;5.45;57.77
47913;BME280;33676;51.006;17.180;2023-04-04T13:14:23;101131.39;;;5.40;57.77
47913;BME280;33676;51.006;17.180;2023-04-04T13:17:05;101131.05;;;5.40;57.83
47913;BME280;33676;51.006;17.180;2023-04-04T13:19:33;101125.91;;;5.50;58.36
47913;BME280;33676;51.006;17.180;2023-04-04T13:22:02;101118.50;;;5.65;58.40
47913;BME280;33676;51.006;17.180;2023-04-04T13:24:31;101118.88;;;5.79;58.32